Time;durP1;ratioP1;P1;durP2;ratioP2;P2;SDS_P1;SDS_P2;PMS_P1;PMS_P2;Temp;Humidity;BMP_temperature;BMP_pressure;BME280_temperature;BME280_humidity;BME280_pressure;Samples;Min_cycle;Max_cycle;Signal;HPM_P1;HPM_P2
2022/02/23 00:00:23;;;;;;;10.88;6.65;;;5.40;62.30;;;;;;5057757;28;20041;-43
2022/02/23 00:02:48;;;;;;;10.32;6.53;;;5.40;62.30;;;;;;5057199;28;20037;-37
2022/02/23 00:05:14;;;;;;;11.48;7.20;;;5.30;62.30;;;;;;5057596;28;20459;-38
2022/02/23 00:07:40;;;;;;;14.35;6.93;;;5.30;62.50;;;;;;5056989;28;20329;-39
2022/02/23 00:10:06;;;;;;;12.30;7.10;;;5.20;62.50;;;;;;5056585;28;20053;-44
2022/02/23 00:12:32;;;;;;;12.52;7.18;;;5.20;62.70;;;;;;5056958;28;20025;-43
2022/02/23 00:14:59;;;;;;;14.05;7.88;;;5.20;62.80;;;;;;5057248;28;20480;-44
2022/02/23 00:17:25;;;;;;;15.30;8.15;;;5.10;62.90;;;;;;5056880;28;20074;-44
2022/02/23 00:19:54;;;;;;;13.98;8.30;;;5.10;63.00;;;;;;5057258;28;20029;-40
2022/02/23 00:22:20;;;;;;;17.23;8.00;;;5.00;63.10;;;;;;5056594;28;20029;-42
2022/02/23 00:24:46;;;;;;;15.95;9.52;;;5.00;63.20;;;;;;5057093;28;20037;-38
2022/02/23 00:27:12;;;;;;;15.82;8.77;;;4.90;63.30;;;;;;5056726;28;20035;-43
2022/02/23 00:29:39;;;;;;;17.50;9.20;;;4.90;63.50;;;;;;5056831;28;20044;-38
2022/02/23 00:32:05;;;;;;;17.30;9.55;;;4.90;63.60;;;;;;5056169;28;20147;-45
2022/02/23 00:34:30;;;;;;;18.42;9.35;;;4.80;63.60;;;;;;5056913;28;20061;-38
2022/02/23 00:36:56;;;;;;;17.85;10.35;;;4.80;63.60;;;;;;5056362;28;20063;-43
2022/02/23 00:39:23;;;;;;;18.10;9.98;;;4.80;63.60;;;;;;5056727;28;20032;-42
2022/02/23 00:41:49;;;;;;;19.98;10.27;;;4.80;63.60;;;;;;5056256;28;20401;-38
2022/02/23 00:44:15;;;;;;;20.30;10.90;;;4.90;63.70;;;;;;5056751;28;20044;-37
2022/02/23 00:46:41;;;;;;;23.30;11.32;;;4.90;63.70;;;;;;5056281;28;20032;-42
2022/02/23 00:49:07;;;;;;;22.25;11.32;;;4.80;63.70;;;;;;5056122;28;20068;-43
2022/02/23 00:51:34;;;;;;;19.08;10.85;;;4.80;63.70;;;;;;5056549;28;20036;-38
2022/02/23 00:53:59;;;;;;;20.52;10.98;;;4.80;63.70;;;;;;5056169;28;20060;-38
2022/02/23 00:56:25;;;;;;;19.65;11.07;;;4.80;63.80;;;;;;5056276;28;20055;-38
2022/02/23 00:58:51;;;;;;;20.35;10.07;;;4.70;63.90;;;;;;5056296;28;20033;-38
2022/02/23 01:01:17;;;;;;;17.17;9.50;;;4.70;64.00;;;;;;5056474;28;20386;-42
2022/02/23 01:03:43;;;;;;;15.88;9.10;;;4.70;64.10;;;;;;5056066;28;20037;-42
2022/02/23 01:06:09;;;;;;;15.65;9.05;;;4.70;64.80;;;;;;5056054;28;20083;-44
2022/02/23 01:08:35;;;;;;;20.73;10.20;;;4.60;64.20;;;;;;5055737;28;20412;-37
2022/02/23 01:11:01;;;;;;;17.13;9.32;;;4.60;64.20;;;;;;5055868;28;20031;-38
2022/02/23 01:13:27;;;;;;;21.13;9.63;;;4.60;64.30;;;;;;5055915;28;20029;-43
2022/02/23 01:15:53;;;;;;;14.95;8.45;;;4.60;64.40;;;;;;5055866;28;20094;-38
2022/02/23 01:18:18;;;;;;;16.63;8.35;;;4.50;64.50;;;;;;5055173;28;20018;-38
2022/02/23 01:20:44;;;;;;;15.68;9.13;;;4.50;64.60;;;;;;5055940;28;20035;-43
2022/02/23 01:23:10;;;;;;;15.57;8.82;;;4.50;64.70;;;;;;5055856;28;20071;-43
2022/02/23 01:25:36;;;;;;;15.32;8.45;;;4.50;64.70;;;;;;5056397;28;20032;-43
2022/02/23 01:28:04;;;;;;;13.88;8.40;;;4.50;64.80;;;;;;5055548;28;20103;-43
2022/02/23 01:30:31;;;;;;;16.58;9.10;;;4.40;64.80;;;;;;5056131;28;20121;-44
2022/02/23 01:32:57;;;;;;;17.33;8.40;;;4.40;64.90;;;;;;5055800;28;20112;-38
2022/02/23 01:35:23;;;;;;;14.57;8.95;;;4.40;65.00;;;;;;5056241;28;20033;-38
2022/02/23 01:37:49;;;;;;;14.32;8.35;;;4.30;65.00;;;;;;5055796;28;20360;-39
2022/02/23 01:40:15;;;;;;;15.45;8.30;;;4.40;65.20;;;;;;5056179;28;20036;-43
2022/02/23 01:42:40;;;;;;;13.13;8.10;;;4.30;65.20;;;;;;5055517;28;20029;-38
2022/02/23 01:45:07;;;;;;;14.80;8.95;;;4.30;65.20;;;;;;5056009;28;20111;-41
2022/02/23 01:47:33;;;;;;;16.73;8.23;;;4.30;65.30;;;;;;5055746;28;20388;-43
2022/02/23 01:49:59;;;;;;;16.92;8.13;;;4.20;65.40;;;;;;5055853;28;20049;-38
2022/02/23 01:52:26;;;;;;;14.73;8.52;;;4.20;65.50;;;;;;5055630;28;20028;-38
2022/02/23 01:54:53;;;;;;;14.90;7.63;;;4.20;65.70;;;;;;5056054;28;20366;-41
2022/02/23 01:57:19;;;;;;;14.50;7.90;;;4.10;65.80;;;;;;5055315;28;20040;-43
2022/02/23 01:59:45;;;;;;;14.20;7.78;;;4.10;66.60;;;;;;5056125;28;20406;-41
2022/02/23 02:02:11;;;;;;;12.63;7.72;;;4.10;66.20;;;;;;5055322;28;20082;-37
2022/02/23 02:04:36;;;;;;;15.15;8.30;;;4.10;66.20;;;;;;5055816;28;20362;-38
2022/02/23 02:07:02;;;;;;;13.93;7.22;;;4.10;66.20;;;;;;5055385;28;20436;-42
2022/02/23 02:09:28;;;;;;;16.02;7.68;;;4.00;66.30;;;;;;5055275;28;20045;-43
2022/02/23 02:11:54;;;;;;;12.25;7.20;;;4.00;66.40;;;;;;5054967;28;20033;-43
2022/02/23 02:14:19;;;;;;;11.48;6.72;;;4.00;66.50;;;;;;5055703;28;20090;-39
2022/02/23 02:16:46;;;;;;;11.95;6.82;;;4.00;66.60;;;;;;5055408;28;20145;-38
2022/02/23 02:19:12;;;;;;;10.50;6.50;;;4.00;66.80;;;;;;5055436;28;20322;-39
2022/02/23 02:21:57;;;;;;;13.57;7.43;;;4.00;66.70;;;;;;5055341;28;20025;-38
2022/02/23 02:24:25;;;;;;;12.57;7.10;;;4.00;66.80;;;;;;5055741;28;20325;-38
2022/02/23 02:26:52;;;;;;;12.20;6.90;;;4.10;66.90;;;;;;5055120;28;20070;-39
2022/02/23 02:29:18;;;;;;;13.32;7.68;;;4.10;66.90;;;;;;5055525;28;20047;-38
2022/02/23 02:31:45;;;;;;;14.07;7.30;;;4.10;66.90;;;;;;5058587;28;20056;-38
2022/02/23 02:34:11;;;;;;;14.13;7.22;;;4.10;66.90;;;;;;5058994;28;20042;-37
2022/02/23 02:36:37;;;;;;;10.73;7.05;;;4.10;66.90;;;;;;5058925;28;20029;-43
2022/02/23 02:39:05;;;;;;;12.95;7.45;;;4.10;67.00;;;;;;5058913;28;20029;-43
2022/02/23 02:41:32;;;;;;;12.25;6.82;;;4.00;67.00;;;;;;5058676;28;20033;-39
2022/02/23 02:43:58;;;;;;;12.70;6.65;;;4.00;67.20;;;;;;5058507;28;20047;-38
2022/02/23 02:46:23;;;;;;;11.48;6.68;;;4.00;67.40;;;;;;5058626;28;20111;-38
2022/02/23 02:48:49;;;;;;;11.30;5.90;;;4.00;67.50;;;;;;5058226;28;20112;-46
2022/02/23 02:51:15;;;;;;;11.63;6.65;;;4.00;67.70;;;;;;5058475;28;20025;-38
2022/02/23 02:53:40;;;;;;;11.52;6.60;;;4.00;67.80;;;;;;5058334;28;20032;-38
2022/02/23 02:56:06;;;;;;;11.05;6.00;;;4.10;68.00;;;;;;5058363;28;20068;-38
2022/02/23 02:58:32;;;;;;;9.18;5.65;;;4.10;68.00;;;;;;5058361;28;20313;-39
2022/02/23 03:00:57;;;;;;;10.68;6.15;;;4.10;68.10;;;;;;5058371;28;20037;-38
2022/02/23 03:03:23;;;;;;;12.57;7.13;;;4.20;68.00;;;;;;5058422;28;20021;-42
2022/02/23 03:05:49;;;;;;;16.63;6.70;;;4.20;68.50;;;;;;5058276;28;20057;-43
2022/02/23 03:08:16;;;;;;;12.88;6.75;;;4.20;67.70;;;;;;5057892;28;20029;-38
2022/02/23 03:10:43;;;;;;;11.57;6.35;;;4.30;67.70;;;;;;5058009;28;20121;-43
2022/02/23 03:13:10;;;;;;;11.20;5.65;;;4.30;67.60;;;;;;5058382;28;20025;-38
2022/02/23 03:15:36;;;;;;;10.38;5.40;;;4.30;67.60;;;;;;5056982;28;20306;-43
2022/02/23 03:18:03;;;;;;;10.52;6.43;;;4.30;67.50;;;;;;5057769;28;20539;-42
2022/02/23 03:20:29;;;;;;;12.65;6.50;;;4.40;67.50;;;;;;5058068;28;20055;-38
2022/02/23 03:22:55;;;;;;;11.50;6.20;;;4.40;67.40;;;;;;5058037;28;20033;-43
2022/02/23 03:25:21;;;;;;;12.15;6.22;;;4.40;67.20;;;;;;5058425;28;20033;-43
2022/02/23 03:27:46;;;;;;;12.02;6.47;;;4.40;67.10;;;;;;5057981;28;20032;-38
2022/02/23 03:30:12;;;;;;;11.48;6.97;;;4.30;67.00;;;;;;5058024;28;20028;-43
2022/02/23 03:32:38;;;;;;;16.38;9.32;;;4.30;66.90;;;;;;5057894;28;20051;-42
2022/02/23 03:35:05;;;;;;;17.52;9.32;;;4.30;66.90;;;;;;5058192;28;20029;-43
2022/02/23 03:37:30;;;;;;;14.95;8.20;;;4.20;66.90;;;;;;5057525;28;20053;-42
2022/02/23 03:39:56;;;;;;;13.98;6.88;;;4.10;67.10;;;;;;5057971;28;20040;-43
2022/02/23 03:42:22;;;;;;;13.88;7.32;;;4.10;67.60;;;;;;5057042;28;20029;-38
2022/02/23 03:44:48;;;;;;;13.02;7.03;;;4.00;68.10;;;;;;5058042;28;20029;-43
2022/02/23 03:47:13;;;;;;;11.60;7.10;;;4.00;68.50;;;;;;5057205;28;20477;-39
2022/02/23 03:49:40;;;;;;;11.55;6.95;;;4.00;68.70;;;;;;5057681;28;20147;-38
2022/02/23 03:52:05;;;;;;;11.90;6.28;;;4.00;69.00;;;;;;5057307;28;20486;-38
2022/02/23 03:54:31;;;;;;;10.77;6.68;;;4.00;69.10;;;;;;5057647;28;20029;-43
2022/02/23 03:56:57;;;;;;;13.98;7.35;;;4.00;69.20;;;;;;5057212;28;20028;-39
2022/02/23 03:59:22;;;;;;;11.85;6.65;;;4.00;69.30;;;;;;5057415;28;20033;-43
2022/02/23 04:01:48;;;;;;;11.80;6.35;;;4.10;69.40;;;;;;5057218;28;20368;-38
2022/02/23 04:04:16;;;;;;;12.77;7.63;;;4.10;69.50;;;;;;5057452;28;20410;-44
2022/02/23 04:06:43;;;;;;;11.63;6.45;;;4.10;69.50;;;;;;5057324;28;20482;-38
2022/02/23 04:09:10;;;;;;;12.00;6.15;;;4.10;69.50;;;;;;5055545;28;20052;-38
2022/02/23 04:11:36;;;;;;;10.80;6.40;;;4.20;69.60;;;;;;5056974;28;20071;-38
2022/02/23 04:14:03;;;;;;;8.77;6.00;;;4.20;69.60;;;;;;5056838;28;20029;-38
2022/02/23 04:16:28;;;;;;;12.07;6.25;;;4.20;69.70;;;;;;5056899;28;20075;-38
2022/02/23 04:18:54;;;;;;;11.18;6.45;;;4.20;69.60;;;;;;5056592;28;20040;-37
2022/02/23 04:21:20;;;;;;;9.40;6.38;;;4.20;69.60;;;;;;5056883;28;20031;-37
2022/02/23 04:23:46;;;;;;;11.05;6.13;;;4.20;69.60;;;;;;5056584;28;20037;-43
2022/02/23 04:26:13;;;;;;;9.73;6.35;;;4.20;69.70;;;;;;5056984;28;20063;-42
2022/02/23 04:28:42;;;;;;;12.00;6.43;;;4.20;69.70;;;;;;5056618;28;20044;-38
2022/02/23 04:31:08;;;;;;;9.38;6.15;;;4.20;69.90;;;;;;5056508;28;20025;-41
2022/02/23 04:33:35;;;;;;;10.88;6.47;;;4.30;70.00;;;;;;5057010;28;20040;-37
2022/02/23 04:36:04;;;;;;;13.02;6.50;;;4.30;70.10;;;;;;5056537;28;20089;-43
2022/02/23 04:38:29;;;;;;;11.02;6.88;;;4.30;70.10;;;;;;5056332;28;20021;-38
2022/02/23 04:40:55;;;;;;;12.70;6.30;;;4.40;70.10;;;;;;5056316;28;20029;-38
2022/02/23 04:43:21;;;;;;;10.38;6.70;;;4.40;70.10;;;;;;5056219;28;20105;-43
2022/02/23 04:45:47;;;;;;;11.50;6.70;;;4.40;70.10;;;;;;5056632;28;20033;-38
2022/02/23 04:48:13;;;;;;;9.77;6.60;;;4.50;70.10;;;;;;5055837;28;20471;-44
2022/02/23 04:50:39;;;;;;;11.40;6.25;;;4.50;70.20;;;;;;5056580;28;20079;-43
2022/02/23 04:53:05;;;;;;;10.98;6.20;;;4.60;70.20;;;;;;5055855;28;20029;-37
2022/02/23 04:55:31;;;;;;;11.77;6.97;;;4.60;70.10;;;;;;5056664;28;20025;-40
2022/02/23 04:57:57;;;;;;;13.35;6.65;;;4.60;70.10;;;;;;5055968;28;20029;-44
2022/02/23 05:00:22;;;;;;;10.02;6.57;;;4.70;70.00;;;;;;5056595;28;20055;-43
2022/02/23 05:02:48;;;;;;;11.65;6.65;;;4.80;70.00;;;;;;5056135;28;20025;-44
2022/02/23 05:05:14;;;;;;;11.73;6.85;;;4.80;70.00;;;;;;5056479;28;20024;-38
2022/02/23 05:07:39;;;;;;;9.88;6.50;;;4.90;69.90;;;;;;5056013;28;20116;-44
2022/02/23 05:10:06;;;;;;;12.73;6.32;;;4.90;69.80;;;;;;5055723;28;20433;-38
2022/02/23 05:12:31;;;;;;;11.73;6.50;;;4.90;69.70;;;;;;5055761;28;20036;-39
2022/02/23 05:14:58;;;;;;;16.80;6.80;;;5.00;69.70;;;;;;5055905;28;20063;-43
2022/02/23 05:17:24;;;;;;;13.55;7.10;;;5.10;69.70;;;;;;5055160;28;20029;-44
2022/02/23 05:19:50;;;;;;;11.00;6.50;;;5.10;69.60;;;;;;5055983;28;20567;-43
2022/02/23 05:22:16;;;;;;;11.07;6.38;;;5.10;69.50;;;;;;5055658;28;20041;-38
2022/02/23 05:24:42;;;;;;;11.57;6.57;;;5.10;69.40;;;;;;5055881;28;20040;-44
2022/02/23 05:27:07;;;;;;;13.38;7.13;;;5.10;69.40;;;;;;5055720;28;20025;-37
2022/02/23 05:29:34;;;;;;;10.85;6.82;;;5.20;69.30;;;;;;5055712;28;20306;-38
2022/02/23 05:32:00;;;;;;;12.10;6.72;;;5.20;69.30;;;;;;5055498;28;20112;-37
2022/02/23 05:34:26;;;;;;;16.25;9.18;;;5.20;69.20;;;;;;5056117;28;20440;-45
2022/02/23 05:36:51;;;;;;;14.65;6.63;;;5.20;69.20;;;;;;5055157;28;20025;-42
2022/02/23 05:39:17;;;;;;;10.73;7.10;;;5.20;69.10;;;;;;5055551;28;20041;-37
2022/02/23 05:41:43;;;;;;;13.82;6.90;;;5.30;69.00;;;;;;5055612;28;20033;-43
2022/02/23 05:44:10;;;;;;;11.73;6.45;;;5.20;68.90;;;;;;5055355;28;20032;-38
2022/02/23 05:46:35;;;;;;;11.15;6.88;;;5.20;68.90;;;;;;5055758;28;20427;-38
2022/02/23 05:49:02;;;;;;;13.13;7.65;;;5.20;69.00;;;;;;5055359;28;20137;-44
2022/02/23 05:51:36;;;;;;;11.77;7.65;;;5.20;69.10;;;;;;5055391;28;20075;-44
2022/02/23 05:54:04;;;;;;;11.93;7.00;;;5.20;69.20;;;;;;5055014;28;20033;-38
2022/02/23 05:56:31;;;;;;;16.92;7.97;;;5.20;69.30;;;;;;5055253;28;20040;-42
2022/02/23 05:58:58;;;;;;;14.85;8.20;;;5.20;69.40;;;;;;5055241;28;20037;-38
2022/02/23 06:01:24;;;;;;;14.63;7.82;;;5.20;69.50;;;;;;5055204;28;20033;-38
2022/02/23 06:03:50;;;;;;;13.25;7.85;;;5.20;69.50;;;;;;5056426;28;20405;-43
2022/02/23 06:06:16;;;;;;;9.93;7.07;;;5.20;69.50;;;;;;5059191;28;20061;-37
2022/02/23 06:08:42;;;;;;;11.80;6.78;;;5.30;69.50;;;;;;5058660;28;20400;-38
2022/02/23 06:11:08;;;;;;;16.05;7.30;;;5.30;69.40;;;;;;5057670;28;20305;-44
2022/02/23 06:13:34;;;;;;;15.80;7.75;;;5.30;69.40;;;;;;5058770;28;20041;-37
2022/02/23 06:16:03;;;;;;;12.20;7.32;;;5.30;69.50;;;;;;5059094;28;20056;-43
2022/02/23 06:18:29;;;;;;;11.65;6.95;;;5.40;69.50;;;;;;5058659;28;20109;-43
2022/02/23 06:20:55;;;;;;;11.65;6.85;;;5.40;69.50;;;;;;5058913;28;20083;-38
2022/02/23 06:23:25;;;;;;;11.85;7.45;;;5.40;69.50;;;;;;5058729;28;20298;-37
2022/02/23 06:25:52;;;;;;;12.40;7.72;;;5.40;69.50;;;;;;5059015;28;20055;-44
2022/02/23 06:28:18;;;;;;;13.23;7.75;;;5.40;69.50;;;;;;5058494;28;20040;-37
2022/02/23 06:30:44;;;;;;;13.82;7.93;;;5.40;69.50;;;;;;5058379;28;20033;-37
2022/02/23 06:33:11;;;;;;;13.07;7.97;;;5.50;69.60;;;;;;5058632;28;20321;-38
2022/02/23 06:35:37;;;;;;;15.43;7.60;;;5.50;69.70;;;;;;5058964;28;20112;-43
2022/02/23 06:38:03;;;;;;;18.17;7.80;;;5.60;69.80;;;;;;5058425;28;20082;-37
2022/02/23 06:40:29;;;;;;;12.02;7.95;;;5.60;69.70;;;;;;5058957;28;20278;-37
2022/02/23 06:42:55;;;;;;;14.68;7.72;;;5.70;69.60;;;;;;5058083;28;20071;-38
2022/02/23 06:45:21;;;;;;;17.13;8.07;;;5.80;69.50;;;;;;5058973;28;20082;-40
2022/02/23 06:47:47;;;;;;;14.85;7.63;;;5.80;69.40;;;;;;5058716;28;20096;-39
2022/02/23 06:50:13;;;;;;;14.57;8.43;;;5.80;69.40;;;;;;5058491;28;20179;-43
2022/02/23 06:52:40;;;;;;;13.27;7.75;;;5.90;69.40;;;;;;5058095;28;20036;-43
2022/02/23 06:55:07;;;;;;;17.40;8.27;;;6.00;69.20;;;;;;5058378;28;20112;-43
2022/02/23 06:57:37;;;;;;;17.42;7.20;;;6.10;68.80;;;;;;5057972;28;20028;-44
2022/02/23 07:00:06;;;;;;;28.88;9.10;;;6.20;68.20;;;;;;5058339;28;20086;-37
2022/02/23 07:02:33;;;;;;;11.13;7.10;;;6.20;68.10;;;;;;5057874;28;20306;-43
2022/02/23 07:04:58;;;;;;;16.60;7.35;;;6.30;67.80;;;;;;5053727;28;20033;-38
2022/02/23 07:07:24;;;;;;;16.05;7.45;;;6.30;67.70;;;;;;5057510;28;20498;-43
2022/02/23 07:09:50;;;;;;;17.95;7.47;;;6.40;67.40;;;;;;5057224;28;20441;-37
2022/02/23 07:12:16;;;;;;;20.88;8.15;;;6.40;67.30;;;;;;5057443;28;20035;-43
2022/02/23 07:14:42;;;;;;;16.15;8.38;;;6.50;67.10;;;;;;5057755;28;20106;-44
2022/02/23 07:17:10;;;;;;;17.90;7.15;;;6.50;66.80;;;;;;5054956;28;20029;-43
2022/02/23 07:19:36;;;;;;;17.40;7.40;;;6.50;66.60;;;;;;5057701;28;20037;-43
2022/02/23 07:22:03;;;;;;;14.02;6.78;;;6.60;66.40;;;;;;5057674;28;20131;-44
2022/02/23 07:24:31;;;;;;;15.40;7.28;;;6.50;66.30;;;;;;5057093;28;20048;-38
2022/02/23 07:26:57;;;;;;;16.02;7.25;;;6.60;66.10;;;;;;5056236;28;20033;-38
2022/02/23 07:29:23;;;;;;;13.48;6.68;;;6.60;65.90;;;;;;5048059;28;20033;-44
2022/02/23 07:31:50;;;;;;;10.57;6.35;;;6.60;65.60;;;;;;5037446;28;20026;-37
2022/02/23 07:34:16;;;;;;;11.38;6.70;;;6.70;65.30;;;;;;5037316;28;20029;-37
2022/02/23 07:36:43;;;;;;;51.28;9.35;;;6.70;64.90;;;;;;5037184;28;20056;-37
2022/02/23 07:39:09;;;;;;;12.45;5.72;;;6.70;64.90;;;;;;5036971;28;20330;-44
2022/02/23 07:41:35;;;;;;;10.73;6.50;;;6.80;64.30;;;;;;5036959;28;20029;-43
2022/02/23 07:44:01;;;;;;;15.57;6.28;;;6.80;63.80;;;;;;5037417;28;20030;-37
2022/02/23 07:46:28;;;;;;;17.40;6.65;;;6.80;64.00;;;;;;5036380;28;20034;-37
2022/02/23 07:48:58;;;;;;;18.25;6.25;;;6.80;63.90;;;;;;5036946;28;20029;-38
2022/02/23 07:51:24;;;;;;;12.17;5.67;;;6.80;63.80;;;;;;5036514;28;20041;-37
2022/02/23 07:53:52;;;;;;;10.73;6.65;;;6.90;63.30;;;;;;5036910;28;20036;-37
2022/02/23 07:56:20;;;;;;;16.48;5.68;;;6.90;63.10;;;;;;5036677;28;20026;-43
2022/02/23 07:58:45;;;;;;;9.70;5.10;;;7.00;62.30;;;;;;5036734;28;20104;-37
2022/02/23 08:01:32;;;;;;;8.90;5.75;;;7.00;62.20;;;;;;5044226;28;20116;-44
2022/02/23 08:03:58;;;;;;;11.68;6.50;;;7.10;61.80;;;;;;5053781;28;20037;-43
2022/02/23 08:06:25;;;;;;;9.45;5.97;;;7.10;61.80;;;;;;5045466;28;20037;-43
2022/02/23 08:08:53;;;;;;;15.95;6.55;;;7.20;61.40;;;;;;5036075;28;20376;-37
2022/02/23 08:11:19;;;;;;;17.17;7.57;;;7.20;61.10;;;;;;5035755;28;20036;-37
2022/02/23 08:13:45;;;;;;;11.68;5.50;;;7.20;61.30;;;;;;5035771;28;20105;-45
2022/02/23 08:21:40;;;;;;;12.35;6.05;;;7.30;61.10;;;;;;5036141;28;20028;-43
2022/02/23 08:24:06;;;;;;;13.18;6.40;;;7.30;60.60;;;;;;5036346;28;20037;-38
2022/02/23 08:26:32;;;;;;;9.35;5.40;;;7.30;60.40;;;;;;5035945;28;20397;-38
2022/02/23 08:28:57;;;;;;;9.95;5.57;;;7.30;60.50;;;;;;5035516;28;20038;-43
2022/02/23 08:31:23;;;;;;;18.48;8.65;;;7.40;60.20;;;;;;5035543;28;20044;-43
2022/02/23 08:33:49;;;;;;;9.10;5.07;;;7.40;59.80;;;;;;5042400;28;20033;-37
2022/02/23 08:36:14;;;;;;;9.18;5.43;;;7.50;59.60;;;;;;5040112;28;20017;-44
2022/02/23 08:38:41;;;;;;;8.98;4.80;;;7.50;58.50;;;;;;5035873;28;20025;-44
2022/02/23 08:41:08;;;;;;;6.45;4.38;;;7.60;58.20;;;;;;5035643;28;20033;-38
2022/02/23 08:43:34;;;;;;;11.20;4.45;;;7.70;57.70;;;;;;5035961;28;20092;-37
2022/02/23 08:46:00;;;;;;;9.35;4.68;;;7.70;57.50;;;;;;5035702;28;20026;-46
2022/02/23 08:48:27;;;;;;;5.88;4.30;;;7.80;57.20;;;;;;5035534;28;20038;-44
2022/02/23 08:50:53;;;;;;;9.35;5.35;;;7.80;56.90;;;;;;5035692;28;20041;-43
2022/02/23 08:53:18;;;;;;;9.65;5.00;;;7.90;56.80;;;;;;5035486;28;20030;-44
2022/02/23 08:55:44;;;;;;;8.60;4.75;;;7.90;56.70;;;;;;5035577;28;20398;-43
2022/02/23 08:58:13;;;;;;;8.00;4.60;;;8.00;56.30;;;;;;5035390;28;20032;-43
2022/02/23 09:00:40;;;;;;;13.02;5.88;;;8.00;56.30;;;;;;5035321;28;20041;-44
2022/02/23 09:03:06;;;;;;;10.55;5.47;;;8.00;56.50;;;;;;5035477;28;20429;-43
2022/02/23 09:05:31;;;;;;;9.48;5.32;;;8.10;56.50;;;;;;5035818;28;20033;-38
2022/02/23 09:07:57;;;;;;;8.65;4.72;;;8.20;56.30;;;;;;5035724;28;20040;-44
2022/02/23 09:10:23;;;;;;;11.68;4.95;;;8.20;55.90;;;;;;5034186;28;20064;-37
2022/02/23 09:12:49;;;;;;;6.30;4.50;;;8.20;56.00;;;;;;5035688;28;20025;-43
2022/02/23 09:15:15;;;;;;;8.73;4.45;;;8.20;56.10;;;;;;5048091;28;20138;-43
2022/02/23 09:17:42;;;;;;;29.95;13.35;;;8.20;56.10;;;;;;5055673;28;20298;-37
2022/02/23 09:20:08;;;;;;;9.70;4.93;;;8.30;55.80;;;;;;5054669;28;20047;-43
2022/02/23 09:22:34;;;;;;;6.97;3.97;;;8.40;55.50;;;;;;5054340;28;20039;-44
2022/02/23 09:24:59;;;;;;;7.20;3.80;;;8.50;55.30;;;;;;5054744;28;20115;-44
2022/02/23 09:27:25;;;;;;;9.27;3.30;;;8.50;54.50;;;;;;5054663;28;20116;-43
2022/02/23 09:29:50;;;;;;;6.55;3.45;;;8.60;54.00;;;;;;5054842;28;20047;-43
2022/02/23 09:32:16;;;;;;;8.02;3.63;;;8.60;53.10;;;;;;5055097;28;20332;-38
2022/02/23 09:34:43;;;;;;;5.82;3.13;;;8.60;52.40;;;;;;5055067;28;20116;-44
2022/02/23 09:37:08;;;;;;;9.35;4.85;;;8.60;51.30;;;;;;5054938;28;20053;-43
2022/02/23 09:39:34;;;;;;;6.80;3.45;;;8.60;51.40;;;;;;5057402;28;20079;-37
2022/02/23 09:42:00;;;;;;;7.35;3.92;;;8.50;51.00;;;;;;5058704;28;20029;-45
2022/02/23 09:44:27;;;;;;;6.90;4.07;;;8.50;51.30;;;;;;5058680;28;20037;-37
2022/02/23 09:46:53;;;;;;;4.80;3.28;;;8.40;50.70;;;;;;5058762;28;20037;-37
2022/02/23 09:49:19;;;;;;;15.10;4.85;;;8.40;50.30;;;;;;5058709;28;20037;-37
2022/02/23 09:51:46;;;;;;;7.63;3.47;;;8.40;50.30;;;;;;5058714;28;20302;-43
2022/02/23 09:54:12;;;;;;;4.97;3.40;;;8.40;50.30;;;;;;5058828;28;20055;-38
2022/02/23 09:56:39;;;;;;;4.72;3.22;;;8.40;50.60;;;;;;5058358;28;20458;-38
2022/02/23 09:59:06;;;;;;;5.50;3.67;;;8.40;50.20;;;;;;5058655;28;20037;-37
2022/02/23 10:01:33;;;;;;;8.40;4.22;;;8.40;50.10;;;;;;5059132;28;20174;-37
2022/02/23 10:04:01;;;;;;;5.88;3.50;;;8.40;50.20;;;;;;5059127;28;20041;-43
2022/02/23 10:06:35;;;;;;;5.45;3.25;;;8.40;49.70;;;;;;5059094;28;20036;-44
2022/02/23 10:09:05;;;;;;;5.80;2.97;;;8.40;49.90;;;;;;5050094;28;20059;-43
2022/02/23 10:11:31;;;;;;;5.63;2.80;;;8.40;49.70;;;;;;5039190;28;20414;-43
2022/02/23 10:13:58;;;;;;;9.23;4.20;;;8.40;49.20;;;;;;5038786;28;20040;-37
2022/02/23 10:16:33;;;;;;;6.47;4.03;;;8.50;48.80;;;;;;5038053;28;20425;-43
2022/02/23 10:19:13;;;;;;;5.65;3.40;;;8.40;48.60;;;;;;5038882;28;20040;-45
2022/02/23 10:21:51;;;;;;;9.63;4.25;;;8.40;48.60;;;;;;5037973;28;20279;-38
2022/02/23 10:24:38;;;;;;;5.10;2.78;;;8.50;48.70;;;;;;5038872;28;20444;-37
2022/02/23 10:27:07;;;;;;;4.82;3.00;;;8.50;48.30;;;;;;5038540;28;20086;-37
2022/02/23 10:29:35;;;;;;;6.20;3.20;;;8.50;47.70;;;;;;5038736;28;20045;-38
2022/02/23 10:32:06;;;;;;;13.63;3.70;;;8.50;46.90;;;;;;5037345;28;20029;-43
2022/02/23 10:34:40;;;;;;;4.97;3.05;;;8.50;47.10;;;;;;5037118;28;20034;-43
2022/02/23 10:37:09;;;;;;;4.45;2.95;;;8.50;47.10;;;;;;5037652;28;20276;-43
2022/02/23 10:39:41;;;;;;;9.82;3.05;;;8.50;46.80;;;;;;5038797;28;20025;-44
2022/02/23 10:42:10;;;;;;;4.50;2.47;;;8.50;46.20;;;;;;5038281;28;20167;-43
2022/02/23 10:44:39;;;;;;;4.25;2.55;;;8.60;45.90;;;;;;5038649;28;20029;-43
2022/02/23 10:47:06;;;;;;;6.13;3.08;;;8.50;45.20;;;;;;5038021;28;20041;-37
2022/02/23 10:49:32;;;;;;;5.80;2.60;;;8.50;45.50;;;;;;5038217;28;20116;-38
2022/02/23 10:52:06;;;;;;;6.15;3.30;;;8.50;45.20;;;;;;5037044;28;20125;-37
2022/02/23 10:54:34;;;;;;;4.00;2.67;;;8.50;45.20;;;;;;5038441;28;20040;-39
2022/02/23 10:57:00;;;;;;;5.95;2.65;;;8.60;45.50;;;;;;5036732;28;20064;-43
2022/02/23 10:59:25;;;;;;;3.13;2.45;;;8.60;45.70;;;;;;5038028;28;20057;-43
2022/02/23 11:01:51;;;;;;;6.70;3.08;;;8.60;45.30;;;;;;5037979;28;20045;-37
2022/02/23 11:04:20;;;;;;;4.05;2.65;;;8.70;45.60;;;;;;5038321;28;20351;-46
2022/02/23 11:06:48;;;;;;;6.07;2.55;;;8.70;45.10;;;;;;5037652;28;20383;-44
2022/02/23 11:09:14;;;;;;;6.85;3.00;;;8.80;44.90;;;;;;5037668;28;20445;-43
2022/02/23 11:11:40;;;;;;;5.60;3.00;;;8.80;44.90;;;;;;5036456;28;20026;-43
2022/02/23 11:14:10;;;;;;;7.32;2.60;;;8.90;45.40;;;;;;5038684;28;20067;-45
2022/02/23 11:16:36;;;;;;;6.68;3.45;;;9.00;44.70;;;;;;5057541;28;20025;-37
2022/02/23 11:19:04;;;;;;;5.82;3.25;;;9.00;44.70;;;;;;5057098;28;20043;-43
2022/02/23 11:21:34;;;;;;;8.10;3.22;;;9.10;44.50;;;;;;5045608;28;20031;-37
2022/02/23 11:24:02;;;;;;;7.60;3.50;;;9.20;45.00;;;;;;5057009;28;20049;-38
2022/02/23 11:26:32;;;;;;;6.53;3.40;;;9.20;44.40;;;;;;5057504;28;20390;-43
2022/02/23 11:29:16;;;;;;;4.10;2.78;;;9.30;44.50;;;;;;5057078;28;20136;-43
2022/02/23 11:31:42;;;;;;;6.38;2.80;;;9.40;44.50;;;;;;5057054;28;20330;-43
2022/02/23 11:34:08;;;;;;;3.70;2.70;;;9.40;44.00;;;;;;5056614;28;20033;-37
2022/02/23 11:36:42;;;;;;;3.38;2.33;;;9.40;43.70;;;;;;5056805;28;20313;-38
2022/02/23 11:39:26;;;;;;;3.33;2.40;;;9.40;43.10;;;;;;5054354;28;20037;-43
2022/02/23 11:41:54;;;;;;;6.03;2.58;;;9.50;43.30;;;;;;5045509;28;20410;-47
2022/02/23 11:44:24;;;;;;;4.63;2.45;;;9.50;43.30;;;;;;5037036;28;20064;-37
2022/02/23 11:46:55;;;;;;;2.83;2.10;;;9.50;43.20;;;;;;5036496;28;20041;-37
2022/02/23 11:49:26;;;;;;;5.80;2.72;;;9.60;43.00;;;;;;5036943;28;20049;-43
2022/02/23 11:52:13;;;;;;;5.10;3.47;;;9.70;42.70;;;;;;5036899;28;20107;-37
2022/02/23 11:54:51;;;;;;;5.68;3.05;;;9.70;41.70;;;;;;5036818;28;20029;-37
2022/02/23 11:57:51;;;;;;;4.30;2.75;;;9.80;42.20;;;;;;5036685;28;20029;-43
2022/02/23 12:00:29;;;;;;;4.22;2.80;;;9.80;41.90;;;;;;5037170;28;20030;-37
2022/02/23 12:03:05;;;;;;;7.55;2.90;;;9.90;41.80;;;;;;5036559;28;20030;-42
2022/02/23 12:05:41;;;;;;;9.02;5.30;;;10.00;41.70;;;;;;5036814;28;20056;-43
2022/02/23 12:08:27;;;;;;;10.20;4.38;;;10.10;41.40;;;;;;5039373;28;20317;-43
2022/02/23 12:10:52;;;;;;;5.22;3.33;;;10.10;41.20;;;;;;5055580;28;20040;-37
2022/02/23 12:13:35;;;;;;;5.55;3.00;;;10.20;40.40;;;;;;5054831;28;20090;-37
2022/02/23 12:16:21;;;;;;;5.82;3.10;;;10.30;40.20;;;;;;5056167;28;20029;-37
2022/02/23 12:18:48;;;;;;;7.22;3.78;;;10.40;40.10;;;;;;5054323;28;20040;-45
2022/02/23 12:21:13;;;;;;;10.43;4.20;;;10.40;40.50;;;;;;5056623;28;20056;-44
2022/02/23 12:23:41;;;;;;;9.55;3.83;;;10.50;40.00;;;;;;5055863;28;20403;-38
2022/02/23 12:26:16;;;;;;;3.80;2.70;;;10.60;38.90;;;;;;5056302;28;20033;-38
2022/02/23 12:28:47;;;;;;;5.88;2.65;;;10.70;38.70;;;;;;5055851;28;20024;-37
2022/02/23 12:31:19;;;;;;;12.50;3.65;;;10.80;39.30;;;;;;5056006;28;20116;-37
2022/02/23 12:33:48;;;;;;;4.40;2.70;;;10.90;38.60;;;;;;5055448;28;20100;-37
2022/02/23 12:36:23;;;;;;;4.97;2.60;;;11.10;38.40;;;;;;5055835;28;20021;-37
2022/02/23 12:38:50;;;;;;;11.35;4.55;;;11.20;38.10;;;;;;5055547;28;20302;-44
2022/02/23 12:41:24;;;;;;;6.38;3.35;;;11.30;38.30;;;;;;5055822;28;20143;-43
2022/02/23 12:44:11;;;;;;;6.25;3.38;;;11.30;37.60;;;;;;5055507;28;20032;-37
2022/02/23 12:46:45;;;;;;;8.23;3.28;;;11.30;37.70;;;;;;5055683;28;20317;-37
2022/02/23 12:49:13;;;;;;;4.63;2.88;;;11.30;37.90;;;;;;5055743;28;20152;-44
2022/02/23 12:51:42;;;;;;;7.72;3.35;;;11.30;37.70;;;;;;5054828;28;20139;-38
2022/02/23 12:54:09;;;;;;;5.50;3.33;;;11.30;37.90;;;;;;5054803;28;20040;-46
2022/02/23 12:56:41;;;;;;;6.32;3.30;;;11.40;37.90;;;;;;5055836;28;20032;-45